createdAt,value
2022-09-16T00:00:05.248Z,14.00
2022-09-16T00:02:31.863Z,13.90
2022-09-16T00:04:58.605Z,14.00
2022-09-16T00:07:25.235Z,14.00
2022-09-16T00:09:51.773Z,14.00
2022-09-16T00:12:18.385Z,14.00
2022-09-16T00:14:44.924Z,14.00
2022-09-16T00:17:11.565Z,14.00
2022-09-16T00:19:38.113Z,14.00
2022-09-16T00:22:05.164Z,14.00
2022-09-16T00:24:31.864Z,14.00
2022-09-16T00:26:58.482Z,14.00
2022-09-16T00:29:25.133Z,14.00
2022-09-16T00:31:51.810Z,14.00
2022-09-16T00:34:18.818Z,14.00
2022-09-16T00:36:45.453Z,14.00
2022-09-16T00:39:12.112Z,14.00
2022-09-16T00:41:38.826Z,14.10
2022-09-16T00:44:46.912Z,14.10
2022-09-16T00:47:16.333Z,14.10
2022-09-16T00:49:43.995Z,14.00
2022-09-16T00:52:10.730Z,14.00
2022-09-16T00:54:39.781Z,14.00
2022-09-16T00:57:09.137Z,14.00
2022-09-16T00:59:40.430Z,14.00
2022-09-16T01:02:10.618Z,14.00
2022-09-16T01:04:48.551Z,14.00
2022-09-16T01:07:15.842Z,13.90
2022-09-16T01:09:42.714Z,13.90
2022-09-16T01:12:09.322Z,13.90
2022-09-16T01:14:53.882Z,13.90
2022-09-16T01:17:30.999Z,13.90
2022-09-16T01:20:34.514Z,13.90
2022-09-16T01:23:28.421Z,13.90
2022-09-16T01:26:43.364Z,14.00
2022-09-16T01:29:46.432Z,14.00
2022-09-16T01:32:34.720Z,14.00
2022-09-16T01:35:20.253Z,13.90
2022-09-16T01:37:57.640Z,13.90
2022-09-16T01:40:37.275Z,13.90
2022-09-16T01:43:26.543Z,13.80
2022-09-16T01:46:23.268Z,13.80
2022-09-16T01:49:04.747Z,13.70
2022-09-16T01:51:47.411Z,13.70
2022-09-16T01:54:33.579Z,13.70
2022-09-16T01:57:15.612Z,13.60
2022-09-16T01:59:51.838Z,13.60
2022-09-16T02:02:26.176Z,13.60
2022-09-16T02:04:58.706Z,13.60
2022-09-16T02:07:31.168Z,13.50
2022-09-16T02:10:10.432Z,13.50
2022-09-16T02:12:38.344Z,13.50
2022-09-16T02:15:11.219Z,13.50
2022-09-16T02:17:44.608Z,13.50
2022-09-16T02:20:17.539Z,13.50
2022-09-16T02:22:46.067Z,13.50
2022-09-16T02:25:15.974Z,13.50
2022-09-16T02:27:44.499Z,13.50
2022-09-16T02:30:17.001Z,13.50
2022-09-16T02:32:47.436Z,13.50
2022-09-16T02:35:18.985Z,13.60
2022-09-16T02:37:49.602Z,13.60
2022-09-16T02:40:22.312Z,13.60
2022-09-16T02:42:49.572Z,13.60
2022-09-16T02:45:16.711Z,13.70
2022-09-16T02:48:16.856Z,13.60
2022-09-16T02:50:52.323Z,13.60
2022-09-16T02:53:36.318Z,13.60
2022-09-16T02:56:13.319Z,13.70
2022-09-16T02:58:40.171Z,13.60
2022-09-16T03:01:07.036Z,13.60
2022-09-16T03:03:33.699Z,13.60
2022-09-16T03:06:06.374Z,13.60
2022-09-16T03:08:35.212Z,13.60
2022-09-16T03:11:09.958Z,13.60
2022-09-16T03:13:59.743Z,13.60
2022-09-16T03:16:49.036Z,13.60
2022-09-16T03:19:43.462Z,13.50
2022-09-16T03:22:37.281Z,13.50
2022-09-16T03:25:17.259Z,13.50
2022-09-16T03:28:01.894Z,13.40
2022-09-16T03:30:37.974Z,13.50
2022-09-16T03:33:19.566Z,13.50
2022-09-16T03:35:50.288Z,13.40
2022-09-16T03:38:18.510Z,13.40
2022-09-16T03:40:47.477Z,13.40
2022-09-16T03:43:16.085Z,13.50
2022-09-16T03:45:43.444Z,13.50
2022-09-16T03:48:12.215Z,13.50
2022-09-16T03:50:39.187Z,13.50
2022-09-16T03:53:05.883Z,13.50
2022-09-16T03:55:32.543Z,13.50
2022-09-16T03:57:59.144Z,13.60
2022-09-16T04:00:25.685Z,13.50
2022-09-16T04:02:52.314Z,13.50
2022-09-16T04:05:18.985Z,13.60
2022-09-16T04:07:45.622Z,13.50
2022-09-16T04:10:12.389Z,13.40
2022-09-16T04:12:39.121Z,13.40
2022-09-16T04:15:05.936Z,13.40
2022-09-16T04:17:33.919Z,13.30
2022-09-16T04:20:00.830Z,13.30
2022-09-16T04:22:31.426Z,13.30
2022-09-16T04:24:58.302Z,13.30
2022-09-16T04:27:25.098Z,13.20
2022-09-16T04:29:51.742Z,13.20
2022-09-16T04:32:18.394Z,13.20
2022-09-16T04:34:45.616Z,13.20
2022-09-16T04:37:12.234Z,13.10
2022-09-16T04:39:38.782Z,13.10
2022-09-16T04:42:06.936Z,13.00
2022-09-16T04:44:33.532Z,13.00
2022-09-16T04:47:00.530Z,13.00
2022-09-16T04:49:27.272Z,13.00
2022-09-16T04:51:53.951Z,13.00
2022-09-16T04:54:20.600Z,13.00
2022-09-16T04:56:47.155Z,13.00
2022-09-16T04:59:13.751Z,12.90
2022-09-16T05:01:40.567Z,12.90
2022-09-16T05:04:09.528Z,12.90
2022-09-16T05:06:38.831Z,12.90
2022-09-16T05:09:05.633Z,12.80
2022-09-16T05:11:35.883Z,12.80
2022-09-16T05:14:04.809Z,12.80
2022-09-16T05:16:32.838Z,12.80
2022-09-16T05:19:01.360Z,12.80
2022-09-16T05:21:29.340Z,12.80
2022-09-16T05:24:00.506Z,12.80
2022-09-16T05:26:29.733Z,12.70
2022-09-16T05:28:56.336Z,12.70
2022-09-16T05:31:25.222Z,12.70
2022-09-16T05:34:02.509Z,12.80
2022-09-16T05:36:38.420Z,12.80
2022-09-16T05:39:24.541Z,12.90
2022-09-16T05:41:59.874Z,13.00
2022-09-16T05:44:28.185Z,13.20
2022-09-16T05:46:55.500Z,13.20
2022-09-16T05:49:23.699Z,13.20
2022-09-16T05:51:51.402Z,13.20
2022-09-16T05:54:19.043Z,13.10
2022-09-16T05:56:46.867Z,13.10
2022-09-16T05:59:14.599Z,13.10
2022-09-16T06:01:41.574Z,13.00
2022-09-16T06:04:11.307Z,13.10
2022-09-16T06:06:40.383Z,13.00
2022-09-16T06:09:22.138Z,13.00
2022-09-16T06:11:51.333Z,13.00
2022-09-16T06:14:19.728Z,13.00
2022-09-16T06:16:46.422Z,13.00
2022-09-16T06:19:15.935Z,13.10
2022-09-16T06:21:43.977Z,13.00
2022-09-16T06:24:11.694Z,13.10
2022-09-16T06:26:40.167Z,13.20
2022-09-16T06:29:07.821Z,13.30
2022-09-16T06:31:36.164Z,13.50
2022-09-16T06:34:03.541Z,13.60
2022-09-16T06:36:33.021Z,13.60
2022-09-16T06:38:59.694Z,13.60
2022-09-16T06:41:26.503Z,13.70
2022-09-16T06:43:53.233Z,13.70
2022-09-16T06:46:25.548Z,13.80
2022-09-16T06:48:54.015Z,13.80
2022-09-16T06:51:31.236Z,13.90
2022-09-16T06:54:06.315Z,14.00
2022-09-16T06:56:37.635Z,14.10
2022-09-16T06:59:04.482Z,14.10
2022-09-16T07:01:32.161Z,14.10
2022-09-16T07:04:01.871Z,14.10
2022-09-16T07:09:16.832Z,13.90
2022-09-16T07:11:43.449Z,13.90
2022-09-16T07:14:10.194Z,13.90
2022-09-16T07:16:36.871Z,13.80
2022-09-16T07:19:04.201Z,13.80
2022-09-16T07:21:31.722Z,13.80
2022-09-16T07:24:00.995Z,13.80
2022-09-16T07:26:29.428Z,13.80
2022-09-16T07:28:58.996Z,13.70
2022-09-16T07:31:28.039Z,13.80
2022-09-16T07:34:01.322Z,13.80
2022-09-16T07:36:33.613Z,13.90
2022-09-16T07:39:00.857Z,13.90
2022-09-16T07:41:30.258Z,13.90
2022-09-16T07:43:59.236Z,13.90
2022-09-16T07:46:28.381Z,14.00
2022-09-16T07:48:56.061Z,14.00
2022-09-16T07:51:25.069Z,14.10
2022-09-16T07:53:59.261Z,14.20
2022-09-16T07:56:28.903Z,14.50
2022-09-16T07:58:56.810Z,14.80
2022-09-16T08:01:25.098Z,15.00
2022-09-16T08:03:52.419Z,15.20
2022-09-16T08:06:24.995Z,15.40
2022-09-16T08:08:53.309Z,15.40
2022-09-16T08:11:20.973Z,15.30
2022-09-16T08:13:47.982Z,15.10
2022-09-16T08:16:19.966Z,14.90
2022-09-16T08:18:49.051Z,14.70
2022-09-16T08:21:18.894Z,14.70
2022-09-16T08:23:46.515Z,14.60
2022-09-16T08:26:14.321Z,14.60
2022-09-16T08:29:07.217Z,14.70
2022-09-16T08:31:30.993Z,14.80
2022-09-16T08:33:57.767Z,14.80
2022-09-16T08:36:25.479Z,14.80
2022-09-16T08:38:55.617Z,14.90
2022-09-16T08:41:31.406Z,14.70
2022-09-16T08:44:04.154Z,14.60
2022-09-16T08:47:02.213Z,14.60
2022-09-16T08:49:46.456Z,14.70
2022-09-16T08:52:32.100Z,14.80
2022-09-16T08:55:12.365Z,14.90
2022-09-16T08:57:42.841Z,15.10
2022-09-16T09:00:18.296Z,15.30
2022-09-16T09:03:05.309Z,15.50
2022-09-16T09:05:54.029Z,15.80
2022-09-16T09:08:45.917Z,16.10
2022-09-16T09:11:20.331Z,16.60
2022-09-16T09:14:17.397Z,17.00
2022-09-16T09:17:03.904Z,17.20
2022-09-16T09:19:39.180Z,17.10
2022-09-16T09:22:16.848Z,16.70
2022-09-16T09:24:56.798Z,16.40
2022-09-16T09:27:31.280Z,16.10
2022-09-16T09:30:25.270Z,16.10
2022-09-16T09:33:44.976Z,16.40
2022-09-16T09:36:47.488Z,16.50
2022-09-16T09:39:22.711Z,16.80
2022-09-16T09:41:56.788Z,17.10
2022-09-16T09:44:37.762Z,17.30
2022-09-16T09:47:11.838Z,17.30
2022-09-16T09:49:46.689Z,17.10
2022-09-16T09:52:18.862Z,16.90
2022-09-16T09:54:50.880Z,16.90
2022-09-16T09:57:39.293Z,16.90
2022-09-16T10:00:16.048Z,16.90
2022-09-16T10:02:48.801Z,17.10
2022-09-16T10:05:28.411Z,17.30
2022-09-16T10:08:02.958Z,17.60
2022-09-16T10:10:33.293Z,17.90
2022-09-16T10:13:12.853Z,18.20
2022-09-16T10:15:40.111Z,18.30
2022-09-16T10:18:22.172Z,18.20
2022-09-16T10:21:16.624Z,17.90
2022-09-16T10:23:57.320Z,17.40
2022-09-16T10:26:28.664Z,16.80
2022-09-16T10:29:00.228Z,16.30
2022-09-16T10:31:34.332Z,16.10
2022-09-16T10:34:02.890Z,15.80
2022-09-16T10:36:34.463Z,15.80
2022-09-16T10:39:05.189Z,15.90
2022-09-16T10:41:40.705Z,16.10
2022-09-16T10:44:33.519Z,16.40
2022-09-16T10:47:16.150Z,16.70
2022-09-16T10:49:52.456Z,16.70
2022-09-16T10:52:22.745Z,16.60
2022-09-16T10:54:50.347Z,16.60
2022-09-16T10:57:23.968Z,16.40
2022-09-16T11:00:21.115Z,16.30
2022-09-16T11:02:55.767Z,16.10
2022-09-16T11:05:47.232Z,16.00
2022-09-16T11:08:32.392Z,16.10
2022-09-16T11:11:14.520Z,16.40
2022-09-16T11:13:58.388Z,16.60
2022-09-16T11:16:53.900Z,16.60
2022-09-16T11:19:49.597Z,17.10
2022-09-16T11:22:53.888Z,17.50
2022-09-16T11:25:45.616Z,17.90
2022-09-16T11:28:12.148Z,18.20
2022-09-16T11:30:53.560Z,18.30
2022-09-16T11:33:36.592Z,18.20
2022-09-16T11:36:33.351Z,18.20
2022-09-16T11:39:27.046Z,18.20
2022-09-16T11:42:02.761Z,18.20
2022-09-16T11:44:56.864Z,18.10
2022-09-16T11:48:01.808Z,17.70
2022-09-16T11:50:46.057Z,17.30
2022-09-16T11:53:41.336Z,16.80
2022-09-16T11:56:19.359Z,16.60
2022-09-16T11:58:55.497Z,16.30
2022-09-16T12:01:46.720Z,16.10
2022-09-16T12:04:18.498Z,16.10
2022-09-16T12:07:06.747Z,16.50
2022-09-16T12:10:21.489Z,16.90
2022-09-16T12:13:15.382Z,17.30
2022-09-16T12:15:53.419Z,17.60
2022-09-16T12:18:25.549Z,17.70
2022-09-16T12:20:57.791Z,17.70
2022-09-16T12:23:28.664Z,17.80
2022-09-16T12:26:12.283Z,17.80
2022-09-16T12:28:59.255Z,17.90
2022-09-16T12:31:51.146Z,18.10
2022-09-16T12:34:26.447Z,18.30
2022-09-16T12:37:15.351Z,18.30
2022-09-16T12:39:42.780Z,18.10
2022-09-16T12:42:46.082Z,17.30
2022-09-16T12:45:54.771Z,16.30
2022-09-16T12:48:37.173Z,15.80
2022-09-16T12:51:40.620Z,15.70
2022-09-16T12:54:10.225Z,15.80
2022-09-16T12:57:04.230Z,16.10
2022-09-16T13:00:07.626Z,16.20
2022-09-16T13:02:39.730Z,16.20
2022-09-16T13:05:30.870Z,16.10
2022-09-16T13:08:17.208Z,16.10
2022-09-16T13:10:56.220Z,15.90
2022-09-16T13:13:41.248Z,15.90
2022-09-16T13:16:08.946Z,15.90
2022-09-16T13:18:39.876Z,16.10
2022-09-16T13:21:25.551Z,16.40
2022-09-16T13:24:18.839Z,16.60
2022-09-16T13:26:45.840Z,17.00
2022-09-16T13:29:26.320Z,17.10
2022-09-16T13:31:53.062Z,17.00
2022-09-16T13:34:20.869Z,16.90
2022-09-16T13:36:47.862Z,17.00
2022-09-16T13:39:27.982Z,17.00
2022-09-16T13:41:54.962Z,17.10
2022-09-16T13:44:33.843Z,17.40
2022-09-16T13:47:09.404Z,17.70
2022-09-16T13:49:46.315Z,18.00
2022-09-16T13:52:19.418Z,18.20
2022-09-16T13:55:09.922Z,18.10
2022-09-16T13:57:50.268Z,18.00
2022-09-16T14:00:23.649Z,18.00
2022-09-16T14:03:09.060Z,18.00
2022-09-16T14:05:59.734Z,17.90
2022-09-16T14:08:53.679Z,17.90
2022-09-16T14:11:35.942Z,17.70
2022-09-16T14:14:07.653Z,17.70
2022-09-16T14:16:39.859Z,17.60
2022-09-16T14:19:17.611Z,17.70
2022-09-16T14:21:44.246Z,17.70
2022-09-16T14:24:20.130Z,17.70
2022-09-16T14:26:54.804Z,17.60
2022-09-16T14:29:23.199Z,17.50
2022-09-16T14:31:53.208Z,17.40
2022-09-16T14:34:26.163Z,17.10
2022-09-16T14:36:53.350Z,17.00
2022-09-16T14:39:23.646Z,17.10
2022-09-16T14:41:58.544Z,17.20
2022-09-16T14:44:42.199Z,17.10
2022-09-16T14:47:49.735Z,17.10
2022-09-16T14:50:19.313Z,17.10
2022-09-16T14:53:01.181Z,17.20
2022-09-16T14:55:31.060Z,17.30
2022-09-16T14:57:59.083Z,17.30
2022-09-16T15:00:31.684Z,17.30
2022-09-16T15:03:27.737Z,17.30
2022-09-16T15:05:58.528Z,17.40
2022-09-16T15:08:52.791Z,17.40
2022-09-16T15:11:46.380Z,17.50
2022-09-16T15:14:10.917Z,17.60
2022-09-16T15:17:02.385Z,17.60
2022-09-16T15:19:35.810Z,17.50
2022-09-16T15:22:03.855Z,17.30
2022-09-16T15:24:33.883Z,16.90
2022-09-16T15:27:01.671Z,16.80
2022-09-16T15:29:35.150Z,16.80
2022-09-16T15:32:22.452Z,16.90
2022-09-16T15:35:10.375Z,17.10
2022-09-16T15:37:37.131Z,17.20
2022-09-16T15:40:26.681Z,17.20
2022-09-16T15:43:11.856Z,17.10
2022-09-16T15:45:39.230Z,17.00
2022-09-16T15:48:07.342Z,16.80
2022-09-16T15:50:51.820Z,16.60
2022-09-16T15:53:22.357Z,16.40
2022-09-16T15:55:49.002Z,16.30
2022-09-16T15:58:23.821Z,16.10
2022-09-16T16:01:11.031Z,16.10
2022-09-16T16:03:56.636Z,16.20
2022-09-16T16:06:58.298Z,16.40
2022-09-16T16:09:27.636Z,16.50
2022-09-16T16:11:56.032Z,16.60
2022-09-16T16:14:24.044Z,16.60
2022-09-16T16:17:12.379Z,16.70
2022-09-16T16:19:42.078Z,16.70
2022-09-16T16:22:09.712Z,16.70
2022-09-16T16:24:36.913Z,16.70
2022-09-16T16:27:04.251Z,16.70
2022-09-16T16:29:31.118Z,16.70
2022-09-16T16:32:01.538Z,16.60
2022-09-16T16:34:30.683Z,16.60
2022-09-16T16:36:57.287Z,16.60
2022-09-16T16:39:24.442Z,16.50
2022-09-16T16:41:53.962Z,16.40
2022-09-16T16:44:22.712Z,16.30
2022-09-16T16:46:53.965Z,16.10
2022-09-16T16:49:21.299Z,16.00
2022-09-16T16:51:50.162Z,15.80
2022-09-16T16:54:18.240Z,15.60
2022-09-16T16:56:45.988Z,15.60
2022-09-16T16:59:13.084Z,15.60
2022-09-16T17:01:43.313Z,15.60
2022-09-16T17:04:12.690Z,15.70
2022-09-16T17:06:40.108Z,15.50
2022-09-16T17:09:11.225Z,15.50
2022-09-16T17:11:54.976Z,15.50
2022-09-16T17:14:23.772Z,15.40
2022-09-16T17:16:51.163Z,15.40
2022-09-16T17:19:19.171Z,15.30
2022-09-16T17:21:47.179Z,15.20
2022-09-16T17:24:14.008Z,15.20
2022-09-16T17:26:40.738Z,15.10
2022-09-16T17:29:14.966Z,15.00
2022-09-16T17:31:43.591Z,15.00
2022-09-16T17:34:13.554Z,15.00
2022-09-16T17:36:45.395Z,14.90
2022-09-16T17:39:14.906Z,14.90
2022-09-16T17:41:45.720Z,14.80
2022-09-16T17:44:13.555Z,14.80
2022-09-16T17:46:41.797Z,14.70
2022-09-16T17:49:14.166Z,14.70
2022-09-16T17:51:41.121Z,14.70
2022-09-16T17:54:08.707Z,14.60
2022-09-16T17:56:36.157Z,14.60
2022-09-16T17:59:03.099Z,14.50
2022-09-16T18:01:30.707Z,14.50
2022-09-16T18:03:58.057Z,14.40
2022-09-16T18:06:31.283Z,14.40
2022-09-16T18:09:03.641Z,14.30
2022-09-16T18:11:30.288Z,14.30
2022-09-16T18:13:59.782Z,14.20
2022-09-16T18:16:28.033Z,14.20
2022-09-16T18:18:57.476Z,14.20
2022-09-16T18:21:25.137Z,14.20
2022-09-16T18:23:57.239Z,14.10
2022-09-16T18:26:24.778Z,14.10
2022-09-16T18:31:43.767Z,14.00
2022-09-16T18:34:10.892Z,14.00
2022-09-16T18:36:39.180Z,14.00
2022-09-16T18:39:07.504Z,14.00
2022-09-16T18:41:39.607Z,14.00
2022-09-16T18:44:11.218Z,14.00
2022-09-16T18:46:38.800Z,14.00
2022-09-16T18:49:06.399Z,14.00
2022-09-16T18:51:38.644Z,14.00
2022-09-16T18:54:08.750Z,14.10
2022-09-16T18:56:37.060Z,14.10
2022-09-16T18:59:23.508Z,14.10
2022-09-16T19:01:55.607Z,14.00
2022-09-16T19:04:25.644Z,14.00
2022-09-16T19:06:54.359Z,13.90
2022-09-16T19:09:23.310Z,13.90
2022-09-16T19:11:52.214Z,13.80
2022-09-16T19:14:20.897Z,13.80
2022-09-16T19:16:47.617Z,13.80
2022-09-16T19:19:15.023Z,13.80
2022-09-16T19:21:42.789Z,13.80
2022-09-16T19:24:15.738Z,13.80
2022-09-16T19:26:43.209Z,13.80
2022-09-16T19:29:11.424Z,13.80
2022-09-16T19:31:40.502Z,13.80
2022-09-16T19:34:07.525Z,13.70
2022-09-16T19:36:35.921Z,13.70
2022-09-16T19:39:04.284Z,13.70
2022-09-16T19:41:34.591Z,13.70
2022-09-16T19:44:05.355Z,13.70
2022-09-16T19:46:38.835Z,13.70
2022-09-16T19:49:06.800Z,13.80
2022-09-16T19:51:33.462Z,13.80
2022-09-16T19:54:00.808Z,13.80
2022-09-16T19:56:32.153Z,13.80
2022-09-16T19:58:59.260Z,13.70
2022-09-16T20:01:29.323Z,13.70
2022-09-16T20:03:56.260Z,13.70
2022-09-16T20:06:29.003Z,13.70
2022-09-16T20:09:00.827Z,13.70
2022-09-16T20:11:29.691Z,13.70
2022-09-16T20:14:00.095Z,13.60
2022-09-16T20:16:30.487Z,13.60
2022-09-16T20:18:57.597Z,13.60
2022-09-16T20:21:26.552Z,13.60
2022-09-16T20:23:54.170Z,13.60
2022-09-16T20:26:22.026Z,13.60
2022-09-16T20:28:50.956Z,13.60
2022-09-16T20:31:25.890Z,13.60
2022-09-16T20:33:54.236Z,13.50
2022-09-16T20:36:23.523Z,13.60
2022-09-16T20:38:50.712Z,13.60
2022-09-16T20:41:20.500Z,13.60
2022-09-16T20:43:47.840Z,13.60
2022-09-16T20:46:23.848Z,13.60
2022-09-16T20:48:56.548Z,13.60
2022-09-16T20:51:25.506Z,13.60
2022-09-16T20:53:57.114Z,13.60
2022-09-16T20:56:24.677Z,13.60
2022-09-16T20:58:51.707Z,13.60
2022-09-16T21:01:25.654Z,13.60
2022-09-16T21:03:58.126Z,13.50
2022-09-16T21:06:25.706Z,13.50
2022-09-16T21:08:58.100Z,13.50
2022-09-16T21:11:25.953Z,13.50
2022-09-16T21:13:55.452Z,13.50
2022-09-16T21:16:23.244Z,13.50
2022-09-16T21:18:57.271Z,13.50
2022-09-16T21:21:25.971Z,13.50
2022-09-16T21:23:55.669Z,13.50
2022-09-16T21:26:23.888Z,13.40
2022-09-16T21:28:57.028Z,13.40
2022-09-16T21:31:25.973Z,13.40
2022-09-16T21:33:52.813Z,13.40
2022-09-16T21:36:21.391Z,13.40
2022-09-16T21:38:48.208Z,13.40
2022-09-16T21:41:17.764Z,13.30
2022-09-16T21:43:48.719Z,13.40
2022-09-16T21:46:17.697Z,13.40
2022-09-16T21:48:44.492Z,13.40
2022-09-16T21:51:13.161Z,13.40
2022-09-16T21:53:43.771Z,13.40
2022-09-16T21:56:13.260Z,13.40
2022-09-16T21:58:40.679Z,13.40
2022-09-16T22:01:19.403Z,13.30
2022-09-16T22:03:48.714Z,13.30
2022-09-16T22:06:18.404Z,13.30
2022-09-16T22:08:49.312Z,13.30
2022-09-16T22:11:17.536Z,13.20
2022-09-16T22:13:44.160Z,13.20
2022-09-16T22:16:15.016Z,13.10
2022-09-16T22:18:41.659Z,13.10
2022-09-16T22:21:09.596Z,13.10
2022-09-16T22:23:37.576Z,13.10
2022-09-16T22:26:15.223Z,13.10
2022-09-16T22:28:42.626Z,13.00
2022-09-16T22:31:15.583Z,13.00
2022-09-16T22:33:42.827Z,13.00
2022-09-16T22:36:11.825Z,12.90
2022-09-16T22:38:38.531Z,12.90
2022-09-16T22:41:09.890Z,12.90
2022-09-16T22:43:37.837Z,12.90
2022-09-16T22:46:10.374Z,12.80
2022-09-16T22:48:37.790Z,12.80
2022-09-16T22:51:04.623Z,12.80
2022-09-16T22:53:32.777Z,12.80
2022-09-16T22:56:07.899Z,12.80
2022-09-16T22:58:34.571Z,12.80
2022-09-16T23:01:08.885Z,12.70
2022-09-16T23:03:36.620Z,12.80
2022-09-16T23:06:10.148Z,12.80
2022-09-16T23:08:39.391Z,12.80
2022-09-16T23:11:08.965Z,12.90
2022-09-16T23:13:36.156Z,12.90
2022-09-16T23:16:05.469Z,12.80
2022-09-16T23:18:34.032Z,12.80
2022-09-16T23:21:02.537Z,12.80
2022-09-16T23:23:30.403Z,12.80
2022-09-16T23:26:01.161Z,12.80
2022-09-16T23:28:27.791Z,12.80
2022-09-16T23:30:54.359Z,12.90
2022-09-16T23:33:21.045Z,12.90
2022-09-16T23:35:50.013Z,12.90
2022-09-16T23:38:16.711Z,13.00
2022-09-16T23:40:43.352Z,12.90
2022-09-16T23:43:09.959Z,12.90
2022-09-16T23:45:37.471Z,12.90
2022-09-16T23:48:05.522Z,12.90
2022-09-16T23:50:32.384Z,12.90
2022-09-16T23:52:59.622Z,12.90
2022-09-16T23:55:27.373Z,12.90
2022-09-16T23:57:54.779Z,12.80
